Time;durP1;ratioP1;P1;durP2;ratioP2;P2;SDS_P1;SDS_P2;PMS_P1;PMS_P2;Temp;Humidity;BMP_temperature;BMP_pressure;BME280_temperature;BME280_humidity;BME280_pressure;Samples;Min_cycle;Max_cycle;Signal;HPM_P1;HPM_P2
2024/01/22 00:00:01;;;;;;;6.72;2.70;;;;;;;;;;478002;28;1064;-75
2024/01/22 00:00:17;;;;;;;6.25;2.72;;;;;;;;;;478695;28;1126;-74
2024/01/22 00:00:33;;;;;;;5.47;2.67;;;;;;;;;;477550;28;1322;-74
2024/01/22 00:00:50;;;;;;;5.53;2.70;;;;;;;;;;477375;28;1035;-74
2024/01/22 00:01:05;;;;;;;5.03;2.50;;;;;;;;;;476020;28;1396;-74
2024/01/22 00:01:20;;;;;;;5.97;2.50;;;;;;;;;;477124;28;1289;-74
2024/01/22 00:01:36;;;;;;;6.00;2.50;;;;;;;;;;478907;28;1188;-74
2024/01/22 00:01:51;;;;;;;4.37;2.47;;;;;;;;;;477581;28;1181;-74
2024/01/22 00:02:07;;;;;;;4.32;2.53;;;;;;;;;;478129;28;942;-74
2024/01/22 00:02:22;;;;;;;4.67;2.50;;;;;;;;;;478694;28;1050;-74
2024/01/22 00:02:38;;;;;;;6.25;2.70;;;;;;;;;;479748;28;1098;-74
2024/01/22 00:02:53;;;;;;;6.53;2.57;;;;;;;;;;477993;28;1153;-74
2024/01/22 00:03:10;;;;;;;4.85;2.42;;;;;;;;;;477353;28;1058;-74
2024/01/22 00:03:25;;;;;;;4.30;2.50;;;;;;;;;;477523;28;1288;-74
2024/01/22 00:03:41;;;;;;;4.30;2.50;;;;;;;;;;475739;28;1391;-74
2024/01/22 00:03:57;;;;;;;5.30;2.60;;;;;;;;;;478554;28;1187;-74
2024/01/22 00:04:13;;;;;;;5.85;2.75;;;;;;;;;;478663;28;1230;-74
2024/01/22 00:04:28;;;;;;;5.80;2.80;;;;;;;;;;476876;28;1683;-74
2024/01/22 00:04:44;;;;;;;5.75;2.58;;;;;;;;;;477701;28;1247;-74
2024/01/22 00:04:59;;;;;;;5.03;2.50;;;;;;;;;;476756;28;1142;-74
2024/01/22 00:05:15;;;;;;;4.43;2.60;;;;;;;;;;475189;29;1142;-74
2024/01/22 00:05:30;;;;;;;5.77;2.60;;;;;;;;;;475666;28;1099;-73
2024/01/22 00:05:46;;;;;;;6.60;2.63;;;;;;;;;;477282;28;1302;-74
2024/01/22 00:06:01;;;;;;;5.43;2.60;;;;;;;;;;477302;28;1064;-74
2024/01/22 00:06:16;;;;;;;5.00;2.70;;;;;;;;;;477693;28;1335;-74
2024/01/22 00:06:32;;;;;;;5.17;2.70;;;;;;;;;;479621;28;1281;-74
2024/01/22 00:06:48;;;;;;;6.13;2.63;;;;;;;;;;477271;28;1224;-74
2024/01/22 00:07:03;;;;;;;7.10;2.70;;;;;;;;;;479137;28;979;-74
2024/01/22 00:07:19;;;;;;;5.93;2.70;;;;;;;;;;477979;28;909;-74
2024/01/22 00:07:36;;;;;;;4.47;2.63;;;;;;;;;;478053;28;965;-75
2024/01/22 00:07:52;;;;;;;4.78;2.53;;;;;;;;;;478329;28;1441;-74
2024/01/22 00:08:07;;;;;;;4.53;2.40;;;;;;;;;;477737;28;969;-74
2024/01/22 00:08:23;;;;;;;4.63;2.63;;;;;;;;;;477451;28;1043;-75
2024/01/22 00:08:39;;;;;;;5.22;2.70;;;;;;;;;;477083;28;1288;-74
2024/01/22 00:08:54;;;;;;;4.95;2.53;;;;;;;;;;478064;28;1154;-74
2024/01/22 00:09:10;;;;;;;4.93;2.50;;;;;;;;;;478087;28;1130;-74
2024/01/22 00:09:25;;;;;;;5.25;2.55;;;;;;;;;;478052;28;989;-74
2024/01/22 00:09:41;;;;;;;7.13;2.87;;;;;;;;;;478434;28;1030;-74
2024/01/22 00:09:56;;;;;;;6.60;2.88;;;;;;;;;;479665;28;1093;-74
2024/01/22 00:10:12;;;;;;;5.67;2.70;;;;;;;;;;480000;28;1285;-74
2024/01/22 00:10:27;;;;;;;6.78;2.70;;;;;;;;;;480149;28;1004;-74
2024/01/22 00:10:43;;;;;;;5.87;2.50;;;;;;;;;;482333;28;999;-74
2024/01/22 00:10:58;;;;;;;5.68;2.58;;;;;;;;;;479630;28;1231;-74
2024/01/22 00:11:14;;;;;;;5.13;2.60;;;;;;;;;;479498;28;1331;-74
2024/01/22 00:11:29;;;;;;;5.65;2.70;;;;;;;;;;478109;28;1274;-74
2024/01/22 00:11:45;;;;;;;5.93;2.70;;;;;;;;;;478807;28;1043;-74
2024/01/22 00:12:00;;;;;;;6.55;2.60;;;;;;;;;;478212;28;1098;-74
2024/01/22 00:12:16;;;;;;;10.53;3.07;;;;;;;;;;477106;28;958;-74
2024/01/22 00:12:32;;;;;;;10.13;3.03;;;;;;;;;;479382;28;1354;-74
2024/01/22 00:12:48;;;;;;;6.05;2.78;;;;;;;;;;478901;28;1037;-73
2024/01/22 00:13:03;;;;;;;5.68;2.67;;;;;;;;;;480456;28;955;-74
2024/01/22 00:13:19;;;;;;;4.87;2.40;;;;;;;;;;481431;28;1102;-74
2024/01/22 00:13:34;;;;;;;5.13;2.45;;;;;;;;;;482156;28;1089;-74
2024/01/22 00:13:49;;;;;;;6.27;2.67;;;;;;;;;;482407;28;1255;-74
2024/01/22 00:14:05;;;;;;;5.97;2.60;;;;;;;;;;480082;28;1219;-73
2024/01/22 00:14:20;;;;;;;5.93;2.70;;;;;;;;;;480269;28;1062;-74
2024/01/22 00:14:37;;;;;;;5.82;2.75;;;;;;;;;;480306;28;1148;-74
2024/01/22 00:14:52;;;;;;;4.50;2.67;;;;;;;;;;479762;28;1033;-74
2024/01/22 00:15:08;;;;;;;5.60;2.80;;;;;;;;;;479325;28;1186;-74
2024/01/22 00:15:23;;;;;;;6.30;2.80;;;;;;;;;;478783;28;918;-74
2024/01/22 00:15:39;;;;;;;5.70;2.60;;;;;;;;;;478892;28;962;-74
2024/01/22 00:15:54;;;;;;;6.50;2.77;;;;;;;;;;478198;28;1165;-74
2024/01/22 00:16:11;;;;;;;6.63;2.87;;;;;;;;;;477825;28;1221;-74
2024/01/22 00:16:27;;;;;;;5.13;2.50;;;;;;;;;;478317;28;1009;-75
2024/01/22 00:16:42;;;;;;;5.93;2.70;;;;;;;;;;476481;29;1468;-74
2024/01/22 00:16:58;;;;;;;5.90;2.78;;;;;;;;;;476921;28;981;-73
2024/01/22 00:17:14;;;;;;;5.00;2.60;;;;;;;;;;478025;28;1138;-74
2024/01/22 00:17:29;;;;;;;4.97;2.65;;;;;;;;;;476204;29;1257;-74
2024/01/22 00:17:45;;;;;;;4.97;2.73;;;;;;;;;;476931;28;1059;-74
2024/01/22 00:18:00;;;;;;;4.97;2.67;;;;;;;;;;478173;28;1358;-74
2024/01/22 00:18:16;;;;;;;6.53;2.63;;;;;;;;;;478531;28;1109;-74
2024/01/22 00:18:32;;;;;;;7.03;2.80;;;;;;;;;;478421;28;1104;-74
2024/01/22 00:18:48;;;;;;;5.80;2.80;;;;;;;;;;480965;28;1138;-74
2024/01/22 00:19:04;;;;;;;5.40;2.70;;;;;;;;;;480341;28;1512;-74
2024/01/22 00:19:19;;;;;;;5.25;2.70;;;;;;;;;;481031;28;1492;-74
2024/01/22 00:19:35;;;;;;;5.63;2.78;;;;;;;;;;481452;28;2462;-74
2024/01/22 00:19:51;;;;;;;5.10;2.73;;;;;;;;;;482207;28;1181;-73
2024/01/22 00:20:07;;;;;;;4.68;2.60;;;;;;;;;;482076;28;938;-74
2024/01/22 00:20:22;;;;;;;4.68;2.53;;;;;;;;;;479169;28;1280;-73
2024/01/22 00:20:38;;;;;;;5.78;2.88;;;;;;;;;;479219;28;1084;-74
2024/01/22 00:20:53;;;;;;;5.97;2.83;;;;;;;;;;479262;28;1016;-74
2024/01/22 00:21:09;;;;;;;5.00;2.60;;;;;;;;;;478212;28;920;-74
2024/01/22 00:21:24;;;;;;;4.97;2.80;;;;;;;;;;475329;29;1202;-74
2024/01/22 00:21:42;;;;;;;5.60;2.80;;;;;;;;;;475224;29;1294;-74
2024/01/22 00:21:58;;;;;;;6.25;2.70;;;;;;;;;;475744;29;1189;-74
2024/01/22 00:22:13;;;;;;;5.55;2.70;;;;;;;;;;477001;28;1049;-74
2024/01/22 00:22:29;;;;;;;5.00;2.70;;;;;;;;;;474867;29;1263;-73
2024/01/22 00:22:44;;;;;;;5.60;3.00;;;;;;;;;;475998;29;947;-74
2024/01/22 00:23:00;;;;;;;5.57;3.00;;;;;;;;;;474299;29;1334;-74
2024/01/22 00:23:15;;;;;;;5.17;2.80;;;;;;;;;;474804;29;978;-74
2024/01/22 00:23:31;;;;;;;5.30;2.78;;;;;;;;;;476969;28;1209;-74
2024/01/22 00:23:46;;;;;;;5.73;2.80;;;;;;;;;;478696;28;1113;-74
2024/01/22 00:24:02;;;;;;;5.05;2.70;;;;;;;;;;477895;28;1181;-75
2024/01/22 00:24:17;;;;;;;5.63;2.90;;;;;;;;;;479121;28;1264;-74
2024/01/22 00:24:33;;;;;;;7.25;2.80;;;;;;;;;;477595;28;1303;-74
2024/01/22 00:24:48;;;;;;;6.57;2.70;;;;;;;;;;477572;28;1438;-74
2024/01/22 00:25:04;;;;;;;4.90;2.67;;;;;;;;;;479434;28;1155;-74
2024/01/22 00:25:19;;;;;;;4.60;2.72;;;;;;;;;;478971;28;1233;-74
2024/01/22 00:25:35;;;;;;;5.67;2.80;;;;;;;;;;476796;28;1109;-74
2024/01/22 00:25:50;;;;;;;6.82;2.90;;;;;;;;;;476148;29;1143;-74
2024/01/22 00:26:06;;;;;;;6.83;3.17;;;;;;;;;;475994;29;953;-74
2024/01/22 00:26:22;;;;;;;5.88;3.00;;;;;;;;;;476857;28;1119;-74
2024/01/22 00:26:37;;;;;;;5.13;2.80;;;;;;;;;;477114;28;966;-74
2024/01/22 00:26:53;;;;;;;4.97;2.70;;;;;;;;;;477416;28;1276;-74
2024/01/22 00:27:08;;;;;;;5.50;2.80;;;;;;;;;;477462;28;1429;-74
2024/01/22 00:27:23;;;;;;;5.90;2.95;;;;;;;;;;478032;28;941;-74
2024/01/22 00:27:39;;;;;;;5.53;2.80;;;;;;;;;;478579;28;1099;-74
2024/01/22 00:27:54;;;;;;;6.50;2.88;;;;;;;;;;479704;28;1022;-74
2024/01/22 00:28:10;;;;;;;6.23;2.77;;;;;;;;;;478343;28;1211;-74
2024/01/22 00:28:25;;;;;;;5.95;2.70;;;;;;;;;;478566;28;1137;-74
2024/01/22 00:28:42;;;;;;;6.57;2.90;;;;;;;;;;477462;28;1212;-74
2024/01/22 00:28:57;;;;;;;5.75;2.90;;;;;;;;;;476141;28;1309;-74
2024/01/22 00:29:12;;;;;;;6.30;2.90;;;;;;;;;;476994;28;1284;-74
2024/01/22 00:29:28;;;;;;;6.57;3.00;;;;;;;;;;477257;28;1022;-74
2024/01/22 00:29:43;;;;;;;6.05;3.00;;;;;;;;;;477401;28;1059;-73
2024/01/22 00:29:59;;;;;;;5.57;3.00;;;;;;;;;;476770;28;1027;-74
2024/01/22 00:30:15;;;;;;;5.50;2.90;;;;;;;;;;478392;28;920;-74
2024/01/22 00:30:30;;;;;;;5.88;3.00;;;;;;;;;;477923;28;1334;-74
2024/01/22 00:30:46;;;;;;;5.87;3.00;;;;;;;;;;478919;28;1389;-73
2024/01/22 00:31:02;;;;;;;7.18;3.10;;;;;;;;;;479167;28;1139;-74
2024/01/22 00:31:17;;;;;;;7.65;3.10;;;;;;;;;;479065;28;1225;-74
2024/01/22 00:31:33;;;;;;;6.30;3.03;;;;;;;;;;479355;28;1111;-74
2024/01/22 00:31:49;;;;;;;6.25;3.05;;;;;;;;;;479310;28;1074;-74
2024/01/22 00:32:05;;;;;;;6.35;3.03;;;;;;;;;;479297;28;1222;-74
2024/01/22 00:32:20;;;;;;;5.32;2.95;;;;;;;;;;477053;28;1454;-73
2024/01/22 00:32:36;;;;;;;5.10;2.90;;;;;;;;;;477556;28;1083;-73
2024/01/22 00:32:51;;;;;;;5.65;3.10;;;;;;;;;;479995;28;1050;-74
2024/01/22 00:33:07;;;;;;;4.77;2.93;;;;;;;;;;478839;28;1391;-72
2024/01/22 00:33:23;;;;;;;6.78;3.10;;;;;;;;;;478234;28;1205;-72
2024/01/22 00:33:38;;;;;;;7.22;3.30;;;;;;;;;;477108;28;1091;-72
2024/01/22 00:33:54;;;;;;;4.88;2.92;;;;;;;;;;477085;28;1196;-71
2024/01/22 00:34:09;;;;;;;5.30;3.00;;;;;;;;;;477646;28;1196;-72
2024/01/22 00:34:25;;;;;;;5.60;3.20;;;;;;;;;;478434;28;1182;-72
2024/01/22 00:34:40;;;;;;;5.53;3.10;;;;;;;;;;478311;28;1099;-71
2024/01/22 00:34:56;;;;;;;5.67;3.10;;;;;;;;;;478959;28;1227;-72
2024/01/22 00:35:11;;;;;;;6.20;3.20;;;;;;;;;;481347;28;1526;-72
2024/01/22 00:35:27;;;;;;;5.60;3.00;;;;;;;;;;482328;28;975;-71
2024/01/22 00:35:43;;;;;;;5.05;2.90;;;;;;;;;;482294;28;1220;-72
2024/01/22 00:35:58;;;;;;;5.20;3.10;;;;;;;;;;480055;28;1573;-71
2024/01/22 00:36:14;;;;;;;5.50;3.03;;;;;;;;;;477457;28;1046;-72
2024/01/22 00:36:29;;;;;;;5.35;2.90;;;;;;;;;;479691;28;946;-72
2024/01/22 00:36:45;;;;;;;5.50;3.10;;;;;;;;;;479882;28;1287;-72
2024/01/22 00:37:00;;;;;;;5.63;3.10;;;;;;;;;;478938;28;1285;-71
2024/01/22 00:37:16;;;;;;;6.15;3.03;;;;;;;;;;478446;28;1067;-71
2024/01/22 00:37:31;;;;;;;5.93;3.10;;;;;;;;;;475360;29;1245;-71
2024/01/22 00:37:47;;;;;;;5.50;3.03;;;;;;;;;;476100;28;1126;-71
2024/01/22 00:38:02;;;;;;;5.57;2.80;;;;;;;;;;478272;28;1186;-71
2024/01/22 00:38:18;;;;;;;5.57;2.88;;;;;;;;;;477568;28;1292;-72
2024/01/22 00:38:33;;;;;;;6.47;2.97;;;;;;;;;;478744;28;1315;-71
2024/01/22 00:38:49;;;;;;;6.82;3.13;;;;;;;;;;477403;28;1153;-71
2024/01/22 00:39:05;;;;;;;6.40;3.17;;;;;;;;;;478109;28;970;-71
2024/01/22 00:39:21;;;;;;;5.95;3.10;;;;;;;;;;477440;28;1266;-71
2024/01/22 00:39:37;;;;;;;6.57;3.03;;;;;;;;;;478570;28;1195;-71
2024/01/22 00:39:55;;;;;;;7.57;3.10;;;;;;;;;;478986;28;1287;-71
2024/01/22 00:40:11;;;;;;;6.85;3.22;;;;;;;;;;477717;28;1004;-71
2024/01/22 00:40:26;;;;;;;5.80;3.03;;;;;;;;;;478896;28;1206;-72
2024/01/22 00:40:42;;;;;;;4.97;2.83;;;;;;;;;;476481;28;1185;-71
2024/01/22 00:40:57;;;;;;;4.43;2.90;;;;;;;;;;477521;28;1485;-71
2024/01/22 00:41:13;;;;;;;5.78;3.00;;;;;;;;;;477584;28;974;-71
2024/01/22 00:41:28;;;;;;;7.00;3.27;;;;;;;;;;478825;28;1365;-71
2024/01/22 00:41:44;;;;;;;5.90;3.10;;;;;;;;;;478858;28;1160;-72
2024/01/22 00:41:59;;;;;;;5.37;3.10;;;;;;;;;;478732;28;1214;-71
2024/01/22 00:42:15;;;;;;;5.93;3.35;;;;;;;;;;477993;28;1080;-71
2024/01/22 00:42:30;;;;;;;5.10;3.20;;;;;;;;;;478142;28;1204;-71
2024/01/22 00:42:46;;;;;;;4.30;3.00;;;;;;;;;;480646;28;1032;-73
2024/01/22 00:43:01;;;;;;;4.97;3.03;;;;;;;;;;478589;28;1087;-71
2024/01/22 00:43:17;;;;;;;6.40;3.00;;;;;;;;;;480441;28;1198;-71
2024/01/22 00:43:32;;;;;;;6.30;2.80;;;;;;;;;;479710;28;1067;-74
2024/01/22 00:43:48;;;;;;;5.43;3.00;;;;;;;;;;479118;28;1162;-74
2024/01/22 00:44:03;;;;;;;5.77;3.23;;;;;;;;;;479965;28;1117;-74
2024/01/22 00:44:19;;;;;;;5.88;3.10;;;;;;;;;;479712;28;1060;-73
2024/01/22 00:44:34;;;;;;;5.37;2.90;;;;;;;;;;477676;28;1360;-74
2024/01/22 00:44:50;;;;;;;5.07;2.80;;;;;;;;;;477125;28;1430;-74
2024/01/22 00:45:06;;;;;;;5.97;2.93;;;;;;;;;;475126;29;1322;-74
2024/01/22 00:45:22;;;;;;;5.78;3.10;;;;;;;;;;473406;29;1521;-74
2024/01/22 00:45:38;;;;;;;6.60;3.20;;;;;;;;;;471172;29;1428;-74
2024/01/22 00:45:54;;;;;;;7.13;3.08;;;;;;;;;;471674;29;1030;-74
2024/01/22 00:46:10;;;;;;;6.53;3.03;;;;;;;;;;471675;29;1080;-73
2024/01/22 00:46:26;;;;;;;6.88;2.97;;;;;;;;;;472232;29;1269;-74
2024/01/22 00:46:41;;;;;;;5.97;2.87;;;;;;;;;;474074;29;921;-74
2024/01/22 00:46:57;;;;;;;5.97;3.10;;;;;;;;;;474620;29;1004;-74
2024/01/22 00:47:12;;;;;;;5.97;3.07;;;;;;;;;;476362;28;1095;-74
2024/01/22 00:47:27;;;;;;;5.50;2.88;;;;;;;;;;476682;28;1497;-74
2024/01/22 00:47:43;;;;;;;5.07;2.90;;;;;;;;;;480076;28;1193;-74
2024/01/22 00:47:58;;;;;;;5.95;3.10;;;;;;;;;;480659;28;958;-74
2024/01/22 00:48:14;;;;;;;6.40;3.20;;;;;;;;;;479665;28;920;-74
2024/01/22 00:48:29;;;;;;;6.13;3.00;;;;;;;;;;479678;28;1280;-73
2024/01/22 00:48:45;;;;;;;5.50;2.87;;;;;;;;;;479262;28;1081;-74
2024/01/22 00:49:00;;;;;;;5.22;2.95;;;;;;;;;;479722;28;1095;-74
2024/01/22 00:49:16;;;;;;;6.50;3.17;;;;;;;;;;479841;28;978;-74
2024/01/22 00:49:31;;;;;;;6.25;3.08;;;;;;;;;;482298;28;1057;-74
2024/01/22 00:49:47;;;;;;;5.10;3.00;;;;;;;;;;482136;28;1331;-74
2024/01/22 00:50:03;;;;;;;5.35;3.22;;;;;;;;;;479722;28;1276;-74
2024/01/22 00:50:19;;;;;;;8.75;3.30;;;;;;;;;;479536;28;1284;-74
2024/01/22 00:50:34;;;;;;;9.65;3.20;;;;;;;;;;479191;28;997;-74
2024/01/22 00:50:50;;;;;;;6.80;3.27;;;;;;;;;;478801;28;1311;-74
2024/01/22 00:51:05;;;;;;;6.65;3.22;;;;;;;;;;479461;28;1083;-74
2024/01/22 00:51:21;;;;;;;6.57;3.07;;;;;;;;;;478932;28;1070;-74
2024/01/22 00:51:37;;;;;;;6.32;2.92;;;;;;;;;;479749;28;958;-73
2024/01/22 00:51:52;;;;;;;5.70;3.10;;;;;;;;;;479937;28;1119;-73
2024/01/22 00:52:08;;;;;;;5.00;3.00;;;;;;;;;;481074;28;1130;-74
2024/01/22 00:52:23;;;;;;;5.63;2.70;;;;;;;;;;481714;28;940;-74
2024/01/22 00:52:39;;;;;;;6.80;2.80;;;;;;;;;;482168;28;1160;-74
2024/01/22 00:52:54;;;;;;;6.10;2.78;;;;;;;;;;482480;28;1357;-74
2024/01/22 00:53:10;;;;;;;4.83;2.67;;;;;;;;;;481844;28;1300;-73
2024/01/22 00:53:25;;;;;;;4.70;2.72;;;;;;;;;;481632;28;1009;-74
2024/01/22 00:53:41;;;;;;;4.87;2.80;;;;;;;;;;480612;28;1276;-74
2024/01/22 00:53:56;;;;;;;4.97;2.88;;;;;;;;;;480114;28;1103;-74
2024/01/22 00:54:12;;;;;;;4.60;2.70;;;;;;;;;;480721;28;1094;-74
2024/01/22 00:54:27;;;;;;;4.43;2.72;;;;;;;;;;479223;28;1039;-74
2024/01/22 00:54:43;;;;;;;5.97;2.97;;;;;;;;;;478741;28;1336;-74
2024/01/22 00:54:58;;;;;;;5.83;2.93;;;;;;;;;;481200;28;924;-74
2024/01/22 00:55:14;;;;;;;5.90;3.03;;;;;;;;;;477428;28;1218;-75
2024/01/22 00:55:29;;;;;;;5.53;3.07;;;;;;;;;;478212;28;1108;-74
2024/01/22 00:55:45;;;;;;;4.25;2.80;;;;;;;;;;479397;28;1082;-74
2024/01/22 00:56:00;;;;;;;5.13;2.90;;;;;;;;;;480160;28;935;-74
2024/01/22 00:56:16;;;;;;;6.25;2.95;;;;;;;;;;480298;28;1006;-74
2024/01/22 00:56:33;;;;;;;5.63;2.93;;;;;;;;;;479651;28;1102;-74
2024/01/22 00:56:48;;;;;;;5.85;3.03;;;;;;;;;;479807;28;1464;-74
2024/01/22 00:57:04;;;;;;;6.10;3.10;;;;;;;;;;477775;28;1419;-74
2024/01/22 00:57:19;;;;;;;6.50;3.17;;;;;;;;;;478283;28;938;-74
2024/01/22 00:57:37;;;;;;;6.03;2.95;;;;;;;;;;477620;28;1102;-74
2024/01/22 00:57:53;;;;;;;4.82;2.70;;;;;;;;;;476192;29;954;-74
2024/01/22 00:58:08;;;;;;;5.30;2.88;;;;;;;;;;476386;29;1261;-74
2024/01/22 00:58:23;;;;;;;5.67;2.90;;;;;;;;;;476968;28;1507;-74
2024/01/22 00:58:39;;;;;;;5.85;2.83;;;;;;;;;;474880;29;1064;-74
2024/01/22 00:58:56;;;;;;;5.50;2.90;;;;;;;;;;475726;28;1123;-74
2024/01/22 00:59:11;;;;;;;6.15;2.95;;;;;;;;;;478134;28;1112;-74
2024/01/22 00:59:27;;;;;;;6.28;2.95;;;;;;;;;;478109;28;1968;-74
2024/01/22 00:59:42;;;;;;;5.67;2.90;;;;;;;;;;477202;28;1281;-74
2024/01/22 00:59:58;;;;;;;4.95;2.85;;;;;;;;;;477915;28;1184;-74
2024/01/22 01:00:15;;;;;;;5.20;2.90;;;;;;;;;;476986;28;1027;-74
2024/01/22 01:00:30;;;;;;;5.53;2.97;;;;;;;;;;478982;28;1091;-74
2024/01/22 01:00:45;;;;;;;5.90;2.90;;;;;;;;;;480576;28;1014;-74
2024/01/22 01:01:01;;;;;;;5.83;3.00;;;;;;;;;;479488;28;1327;-74
2024/01/22 01:01:17;;;;;;;6.00;3.00;;;;;;;;;;480881;28;1021;-74
2024/01/22 01:01:32;;;;;;;5.78;2.83;;;;;;;;;;478889;28;1318;-75
2024/01/22 01:01:48;;;;;;;5.00;2.92;;;;;;;;;;481922;28;1065;-74
2024/01/22 01:02:04;;;;;;;5.80;2.90;;;;;;;;;;482255;28;1081;-74
2024/01/22 01:02:19;;;;;;;5.70;2.78;;;;;;;;;;481085;28;1297;-74
2024/01/22 01:02:35;;;;;;;5.13;2.80;;;;;;;;;;481068;28;1338;-74
2024/01/22 01:02:50;;;;;;;5.03;2.77;;;;;;;;;;480805;28;1320;-74
2024/01/22 01:03:06;;;;;;;4.82;2.95;;;;;;;;;;478841;28;1043;-74
2024/01/22 01:03:21;;;;;;;5.17;3.20;;;;;;;;;;478079;28;1298;-74
2024/01/22 01:03:37;;;;;;;5.55;3.00;;;;;;;;;;477395;28;1087;-74
2024/01/22 01:03:52;;;;;;;5.63;2.90;;;;;;;;;;478649;28;1099;-74
2024/01/22 01:04:08;;;;;;;5.32;2.92;;;;;;;;;;477912;28;1175;-75
2024/01/22 01:04:23;;;;;;;4.97;2.83;;;;;;;;;;478006;28;1486;-73
2024/01/22 01:04:40;;;;;;;5.82;3.00;;;;;;;;;;477989;28;1191;-74
2024/01/22 01:04:56;;;;;;;5.88;2.90;;;;;;;;;;477857;28;1099;-74
2024/01/22 01:05:11;;;;;;;5.57;2.80;;;;;;;;;;478462;28;1219;-74
2024/01/22 01:05:27;;;;;;;5.88;2.88;;;;;;;;;;479410;28;1341;-74
2024/01/22 01:05:42;;;;;;;5.80;2.80;;;;;;;;;;479148;28;982;-74
2024/01/22 01:05:58;;;;;;;5.00;2.70;;;;;;;;;;479114;28;1332;-74
2024/01/22 01:06:13;;;;;;;4.80;2.70;;;;;;;;;;479219;28;1156;-74
2024/01/22 01:06:28;;;;;;;4.65;2.70;;;;;;;;;;479622;28;1156;-74
2024/01/22 01:06:44;;;;;;;3.90;2.77;;;;;;;;;;479172;28;921;-74
2024/01/22 01:06:59;;;;;;;4.65;2.80;;;;;;;;;;478126;28;1043;-74
2024/01/22 01:07:15;;;;;;;4.77;2.70;;;;;;;;;;477323;28;1406;-74
2024/01/22 01:07:30;;;;;;;5.15;2.80;;;;;;;;;;478222;28;1243;-74
2024/01/22 01:07:46;;;;;;;5.47;2.90;;;;;;;;;;476775;28;1536;-74
2024/01/22 01:08:01;;;;;;;4.95;2.85;;;;;;;;;;477209;28;1270;-73
2024/01/22 01:08:17;;;;;;;4.83;2.80;;;;;;;;;;477428;28;1039;-74
2024/01/22 01:08:32;;;;;;;4.68;2.80;;;;;;;;;;477185;28;1205;-73
2024/01/22 01:08:48;;;;;;;5.00;2.73;;;;;;;;;;477950;28;1126;-73
2024/01/22 01:09:03;;;;;;;5.20;2.85;;;;;;;;;;478058;28;940;-74
2024/01/22 01:09:19;;;;;;;5.30;2.90;;;;;;;;;;478396;28;1318;-74
2024/01/22 01:09:34;;;;;;;5.53;2.80;;;;;;;;;;478658;28;937;-73
2024/01/22 01:09:50;;;;;;;4.80;2.60;;;;;;;;;;478226;28;1286;-74
2024/01/22 01:10:06;;;;;;;4.32;2.50;;;;;;;;;;477705;28;1165;-74
2024/01/22 01:10:22;;;;;;;5.07;2.80;;;;;;;;;;477874;28;1035;-74
2024/01/22 01:10:37;;;;;;;5.35;2.88;;;;;;;;;;477915;28;1259;-74
2024/01/22 01:10:53;;;;;;;5.53;2.90;;;;;;;;;;477742;28;1097;-73
2024/01/22 01:11:09;;;;;;;5.72;3.00;;;;;;;;;;477981;28;1395;-74
2024/01/22 01:11:25;;;;;;;4.95;2.83;;;;;;;;;;477869;28;1242;-74
2024/01/22 01:11:41;;;;;;;4.50;2.60;;;;;;;;;;478595;28;1045;-74
2024/01/22 01:11:56;;;;;;;4.78;2.55;;;;;;;;;;480242;28;1029;-74
2024/01/22 01:12:12;;;;;;;5.60;2.70;;;;;;;;;;480510;28;918;-74
2024/01/22 01:12:27;;;;;;;5.43;2.70;;;;;;;;;;479692;28;1336;-74
2024/01/22 01:12:45;;;;;;;5.50;2.80;;;;;;;;;;480416;28;1146;-74
2024/01/22 01:13:00;;;;;;;5.30;2.70;;;;;;;;;;479338;28;1052;-74
2024/01/22 01:13:17;;;;;;;5.80;2.80;;;;;;;;;;476922;28;1288;-74
2024/01/22 01:13:32;;;;;;;5.82;2.85;;;;;;;;;;477985;28;973;-74
2024/01/22 01:13:48;;;;;;;5.10;2.75;;;;;;;;;;478199;28;1140;-74
2024/01/22 01:14:03;;;;;;;5.17;2.63;;;;;;;;;;478271;28;957;-74
2024/01/22 01:14:19;;;;;;;5.77;2.60;;;;;;;;;;479054;28;1039;-74
2024/01/22 01:14:34;;;;;;;5.82;2.70;;;;;;;;;;479910;28;1051;-74
2024/01/22 01:14:50;;;;;;;5.00;2.83;;;;;;;;;;478520;28;1278;-74
2024/01/22 01:15:06;;;;;;;5.22;2.70;;;;;;;;;;478564;28;1155;-74
2024/01/22 01:15:23;;;;;;;5.10;2.60;;;;;;;;;;479556;28;1050;-74
2024/01/22 01:15:38;;;;;;;5.15;2.70;;;;;;;;;;478801;28;1272;-74
2024/01/22 01:15:54;;;;;;;4.80;2.63;;;;;;;;;;479225;28;1031;-74
2024/01/22 01:16:09;;;;;;;5.55;2.60;;;;;;;;;;479023;28;1573;-74
2024/01/22 01:16:25;;;;;;;5.77;2.60;;;;;;;;;;479219;28;1367;-74
2024/01/22 01:16:40;;;;;;;4.60;2.53;;;;;;;;;;479826;28;1060;-74
2024/01/22 01:16:56;;;;;;;4.27;2.50;;;;;;;;;;480888;28;1077;-74
2024/01/22 01:17:11;;;;;;;4.32;2.53;;;;;;;;;;482060;28;1001;-73
2024/01/22 01:17:27;;;;;;;4.67;2.63;;;;;;;;;;481190;28;1047;-74
2024/01/22 01:17:42;;;;;;;5.05;2.50;;;;;;;;;;479891;28;1114;-73
2024/01/22 01:17:58;;;;;;;7.07;2.70;;;;;;;;;;480008;28;1052;-74
2024/01/22 01:18:13;;;;;;;7.03;2.72;;;;;;;;;;478787;28;1476;-74
2024/01/22 01:18:28;;;;;;;7.77;2.60;;;;;;;;;;480804;28;955;-74
2024/01/22 01:18:44;;;;;;;6.88;2.45;;;;;;;;;;480847;28;1276;-73
2024/01/22 01:19:00;;;;;;;5.63;2.63;;;;;;;;;;478197;28;1014;-73
2024/01/22 01:19:15;;;;;;;6.18;2.88;;;;;;;;;;480620;28;1051;-74
2024/01/22 01:19:30;;;;;;;5.57;2.77;;;;;;;;;;480105;28;1950;-74
2024/01/22 01:19:46;;;;;;;5.47;2.78;;;;;;;;;;481356;28;1051;-74
2024/01/22 01:20:03;;;;;;;5.17;2.60;;;;;;;;;;479361;28;1193;-74
2024/01/22 01:20:19;;;;;;;6.45;2.55;;;;;;;;;;480810;28;1263;-74
2024/01/22 01:20:34;;;;;;;6.50;2.50;;;;;;;;;;480455;28;1299;-74
2024/01/22 01:20:50;;;;;;;5.03;2.63;;;;;;;;;;480130;28;1277;-74
2024/01/22 01:21:06;;;;;;;5.57;2.80;;;;;;;;;;481042;28;1300;-73
2024/01/22 01:21:24;;;;;;;5.72;2.83;;;;;;;;;;479182;28;1233;-74
2024/01/22 01:21:41;;;;;;;5.18;2.70;;;;;;;;;;480225;28;1300;-74
2024/01/22 01:21:57;;;;;;;6.30;2.80;;;;;;;;;;480557;28;1077;-74
2024/01/22 01:22:12;;;;;;;5.50;2.87;;;;;;;;;;479481;28;1020;-74
2024/01/22 01:22:28;;;;;;;5.03;2.70;;;;;;;;;;475772;29;1286;-74
2024/01/22 01:22:43;;;;;;;5.23;2.50;;;;;;;;;;474833;29;1119;-74
2024/01/22 01:22:59;;;;;;;5.22;2.65;;;;;;;;;;473993;29;1328;-74
2024/01/22 01:23:14;;;;;;;5.13;2.60;;;;;;;;;;473478;29;1205;-73
2024/01/22 01:23:30;;;;;;;5.60;2.63;;;;;;;;;;474480;29;1338;-74
2024/01/22 01:23:45;;;;;;;5.67;2.67;;;;;;;;;;475015;29;1371;-73
2024/01/22 01:24:00;;;;;;;5.38;2.60;;;;;;;;;;474639;29;1338;-73
2024/01/22 01:24:16;;;;;;;5.67;2.50;;;;;;;;;;477462;28;950;-74
2024/01/22 01:24:31;;;;;;;5.60;2.55;;;;;;;;;;476959;29;1196;-73
2024/01/22 01:24:47;;;;;;;5.67;2.50;;;;;;;;;;476530;28;1185;-74
2024/01/22 01:25:03;;;;;;;5.13;2.60;;;;;;;;;;477830;28;1230;-73
2024/01/22 01:25:18;;;;;;;5.32;2.63;;;;;;;;;;477406;28;1107;-74
2024/01/22 01:25:34;;;;;;;5.80;2.57;;;;;;;;;;478737;28;1257;-73
2024/01/22 01:25:50;;;;;;;4.75;2.33;;;;;;;;;;478919;28;1108;-74
2024/01/22 01:26:05;;;;;;;5.10;2.40;;;;;;;;;;478662;28;1043;-74
2024/01/22 01:26:21;;;;;;;5.77;2.60;;;;;;;;;;479611;28;943;-73
2024/01/22 01:26:41;;;;;;;5.57;2.70;;;;;;;;;;477782;28;1201;-73
2024/01/22 01:26:56;;;;;;;4.50;2.47;;;;;;;;;;479957;28;1160;-74
2024/01/22 01:27:12;;;;;;;4.23;2.40;;;;;;;;;;480575;28;1134;-74
2024/01/22 01:27:27;;;;;;;4.23;2.40;;;;;;;;;;479410;28;1146;-74
2024/01/22 01:27:43;;;;;;;4.35;2.30;;;;;;;;;;478393;28;1078;-74
2024/01/22 01:27:58;;;;;;;6.10;2.53;;;;;;;;;;478276;28;1168;-74
2024/01/22 01:28:14;;;;;;;5.82;2.60;;;;;;;;;;478369;28;1063;-74
2024/01/22 01:28:30;;;;;;;5.18;2.60;;;;;;;;;;479609;28;1257;-74
2024/01/22 01:28:45;;;;;;;5.18;2.67;;;;;;;;;;480181;28;941;-74
2024/01/22 01:29:01;;;;;;;4.63;2.50;;;;;;;;;;479181;28;1546;-74
2024/01/22 01:29:16;;;;;;;4.43;2.28;;;;;;;;;;480706;28;1216;-73
2024/01/22 01:29:32;;;;;;;5.63;2.30;;;;;;;;;;481006;28;1424;-74
2024/01/22 01:29:47;;;;;;;6.17;2.77;;;;;;;;;;478441;28;1280;-73
2024/01/22 01:30:03;;;;;;;5.55;2.70;;;;;;;;;;478166;28;1219;-73
2024/01/22 01:30:19;;;;;;;5.20;2.50;;;;;;;;;;478740;28;983;-73
2024/01/22 01:30:34;;;;;;;5.00;2.47;;;;;;;;;;477979;28;1059;-73
2024/01/22 01:30:50;;;;;;;5.20;2.43;;;;;;;;;;478008;28;1357;-73
2024/01/22 01:31:05;;;;;;;4.20;2.50;;;;;;;;;;479488;28;1139;-73
2024/01/22 01:31:22;;;;;;;4.03;2.50;;;;;;;;;;479108;28;1181;-74
2024/01/22 01:31:37;;;;;;;4.38;2.47;;;;;;;;;;478996;28;1401;-74
2024/01/22 01:31:53;;;;;;;3.97;2.37;;;;;;;;;;477366;28;1040;-74
2024/01/22 01:32:08;;;;;;;3.92;2.30;;;;;;;;;;477746;28;1581;-74
2024/01/22 01:32:24;;;;;;;4.73;2.47;;;;;;;;;;477294;28;1091;-74
2024/01/22 01:32:39;;;;;;;6.03;2.67;;;;;;;;;;478411;28;1347;-74
2024/01/22 01:32:55;;;;;;;5.10;2.50;;;;;;;;;;476456;29;1348;-74
2024/01/22 01:33:10;;;;;;;4.55;2.47;;;;;;;;;;475024;29;1482;-74
2024/01/22 01:33:26;;;;;;;5.33;2.50;;;;;;;;;;475619;29;1164;-74
2024/01/22 01:33:41;;;;;;;6.07;2.58;;;;;;;;;;476245;28;1052;-74
2024/01/22 01:33:57;;;;;;;5.97;2.50;;;;;;;;;;477519;28;1047;-74
2024/01/22 01:34:12;;;;;;;5.10;2.30;;;;;;;;;;477456;28;1284;-74
2024/01/22 01:34:28;;;;;;;4.93;2.40;;;;;;;;;;477609;28;1131;-74
2024/01/22 01:34:43;;;;;;;5.03;2.42;;;;;;;;;;479407;28;1017;-74
2024/01/22 01:34:59;;;;;;;5.87;2.40;;;;;;;;;;480040;28;1058;-74
2024/01/22 01:35:14;;;;;;;5.82;2.47;;;;;;;;;;481186;28;1031;-73
2024/01/22 01:35:30;;;;;;;4.90;2.50;;;;;;;;;;478582;28;1276;-74
2024/01/22 01:35:46;;;;;;;4.93;2.50;;;;;;;;;;478530;28;1130;-74
2024/01/22 01:36:01;;;;;;;4.90;2.50;;;;;;;;;;477442;28;1241;-73
2024/01/22 01:36:17;;;;;;;5.07;2.40;;;;;;;;;;478375;28;1020;-73
2024/01/22 01:36:32;;;;;;;4.40;2.40;;;;;;;;;;478218;28;1336;-74
2024/01/22 01:36:48;;;;;;;4.73;2.50;;;;;;;;;;478774;28;1284;-74